sensor_id;sensor_type;location;lat;lon;timestamp;pressure;altitude;pressure_sealevel;temperature;humidity
24996;BME280;13016;52.162;21.034;2023-08-07T00:04:55;98735.66;;;21.43;60.33
24996;BME280;13016;52.162;21.034;2023-08-07T00:11:07;98748.51;;;21.38;60.63
24996;BME280;13016;52.162;21.034;2023-08-07T00:17:09;98749.05;;;21.41;60.94
24996;BME280;13016;52.162;21.034;2023-08-07T00:23:09;98752.87;;;21.32;61.36
24996;BME280;13016;52.162;21.034;2023-08-07T00:29:09;98753.25;;;21.24;61.41
24996;BME280;13016;52.162;21.034;2023-08-07T00:35:09;98751.59;;;21.15;61.22
24996;BME280;13016;52.162;21.034;2023-08-07T00:41:09;98749.11;;;21.11;61.16
24996;BME280;13016;52.162;21.034;2023-08-07T00:47:10;98733.73;;;21.01;60.97
24996;BME280;13016;52.162;21.034;2023-08-07T00:53:11;98727.36;;;21.04;60.96
24996;BME280;13016;52.162;21.034;2023-08-07T00:59:13;98731.42;;;21.02;60.91
24996;BME280;13016;52.162;21.034;2023-08-07T01:05:13;98718.95;;;21.04;60.32
24996;BME280;13016;52.162;21.034;2023-08-07T01:17:37;98717.48;;;21.19;59.08
24996;BME280;13016;52.162;21.034;2023-08-07T01:23:37;98713.39;;;21.08;59.22
24996;BME280;13016;52.162;21.034;2023-08-07T01:29:45;98716.15;;;21.06;59.01
24996;BME280;13016;52.162;21.034;2023-08-07T01:35:53;98717.15;;;20.96;59.18
24996;BME280;13016;52.162;21.034;2023-08-07T01:41:55;98722.64;;;20.94;59.25
24996;BME280;13016;52.162;21.034;2023-08-07T01:47:56;98745.71;;;20.95;60.13
24996;BME280;13016;52.162;21.034;2023-08-07T01:53:56;98751.21;;;20.81;60.83
24996;BME280;13016;52.162;21.034;2023-08-07T01:59:56;98726.27;;;20.80;60.95
24996;BME280;13016;52.162;21.034;2023-08-07T02:05:56;98713.69;;;20.73;61.15
24996;BME280;13016;52.162;21.034;2023-08-07T02:11:57;98712.58;;;20.62;61.90
24996;BME280;13016;52.162;21.034;2023-08-07T02:17:57;98718.46;;;20.58;62.03
24996;BME280;13016;52.162;21.034;2023-08-07T02:23:57;98743.94;;;20.59;61.78
24996;BME280;13016;52.162;21.034;2023-08-07T02:29:57;98765.66;;;20.53;61.62
24996;BME280;13016;52.162;21.034;2023-08-07T02:35:58;98760.59;;;20.59;61.44
24996;BME280;13016;52.162;21.034;2023-08-07T02:41:58;98753.08;;;20.70;60.50
24996;BME280;13016;52.162;21.034;2023-08-07T02:47:58;98758.09;;;20.55;60.29
24996;BME280;13016;52.162;21.034;2023-08-07T02:53:58;98770.40;;;20.67;60.18
24996;BME280;13016;52.162;21.034;2023-08-07T02:59:58;98769.30;;;20.63;60.41
24996;BME280;13016;52.162;21.034;2023-08-07T03:05:59;98763.52;;;20.63;61.28
24996;BME280;13016;52.162;21.034;2023-08-07T03:11:59;98759.79;;;20.52;62.08
24996;BME280;13016;52.162;21.034;2023-08-07T03:17:59;98773.35;;;20.25;63.51
24996;BME280;13016;52.162;21.034;2023-08-07T03:23:59;98787.21;;;20.27;63.44
24996;BME280;13016;52.162;21.034;2023-08-07T03:29:59;98793.77;;;20.14;63.05
24996;BME280;13016;52.162;21.034;2023-08-07T03:36:00;98804.61;;;19.93;63.33
24996;BME280;13016;52.162;21.034;2023-08-07T03:42:00;98811.23;;;20.02;63.11
24996;BME280;13016;52.162;21.034;2023-08-07T03:48:01;98815.48;;;19.92;63.22
24996;BME280;13016;52.162;21.034;2023-08-07T03:54:01;98813.92;;;19.97;63.54
24996;BME280;13016;52.162;21.034;2023-08-07T04:00:01;98809.39;;;20.02;63.50
24996;BME280;13016;52.162;21.034;2023-08-07T04:06:02;98802.29;;;20.07;63.61
24996;BME280;13016;52.162;21.034;2023-08-07T04:12:02;98796.10;;;20.07;63.58
24996;BME280;13016;52.162;21.034;2023-08-07T04:18:02;98798.74;;;20.10;62.72
24996;BME280;13016;52.162;21.034;2023-08-07T04:24:03;98811.82;;;20.13;61.95
24996;BME280;13016;52.162;21.034;2023-08-07T04:30:05;98820.20;;;20.09;61.14
24996;BME280;13016;52.162;21.034;2023-08-07T04:36:05;98821.50;;;20.16;60.87
24996;BME280;13016;52.162;21.034;2023-08-07T04:42:06;98831.83;;;20.30;60.09
24996;BME280;13016;52.162;21.034;2023-08-07T04:48:07;98847.19;;;20.39;59.17
24996;BME280;13016;52.162;21.034;2023-08-07T04:54:07;98839.95;;;20.47;58.23
24996;BME280;13016;52.162;21.034;2023-08-07T05:00:08;98839.73;;;20.67;57.85
24996;BME280;13016;52.162;21.034;2023-08-07T05:06:08;98842.71;;;20.67;57.05
24996;BME280;13016;52.162;21.034;2023-08-07T05:12:08;98850.19;;;20.62;57.26
24996;BME280;13016;52.162;21.034;2023-08-07T05:18:09;98857.86;;;20.68;57.33
24996;BME280;13016;52.162;21.034;2023-08-07T05:24:09;98859.39;;;20.60;57.65
24996;BME280;13016;52.162;21.034;2023-08-07T05:30:09;98854.79;;;20.64;57.59
24996;BME280;13016;52.162;21.034;2023-08-07T05:36:10;98856.16;;;20.59;57.79
24996;BME280;13016;52.162;21.034;2023-08-07T05:42:10;98857.16;;;20.61;57.90
24996;BME280;13016;52.162;21.034;2023-08-07T05:48:10;98852.45;;;20.74;57.76
24996;BME280;13016;52.162;21.034;2023-08-07T05:54:10;98852.74;;;20.80;57.51
24996;BME280;13016;52.162;21.034;2023-08-07T06:00:11;98859.58;;;20.82;57.62
24996;BME280;13016;52.162;21.034;2023-08-07T06:06:12;98860.13;;;20.83;57.99
24996;BME280;13016;52.162;21.034;2023-08-07T06:12:12;98865.75;;;20.96;57.84
24996;BME280;13016;52.162;21.034;2023-08-07T06:18:12;98873.61;;;20.94;58.13
24996;BME280;13016;52.162;21.034;2023-08-07T06:24:13;98857.04;;;20.74;58.51
24996;BME280;13016;52.162;21.034;2023-08-07T06:30:13;98853.59;;;20.77;57.79
24996;BME280;13016;52.162;21.034;2023-08-07T06:36:13;98870.18;;;20.78;56.82
24996;BME280;13016;52.162;21.034;2023-08-07T06:42:13;98867.91;;;20.87;54.73
24996;BME280;13016;52.162;21.034;2023-08-07T06:48:14;98883.15;;;20.96;54.74
24996;BME280;13016;52.162;21.034;2023-08-07T06:54:14;98895.30;;;21.11;54.64
24996;BME280;13016;52.162;21.034;2023-08-07T07:00:15;98897.88;;;21.16;54.10
24996;BME280;13016;52.162;21.034;2023-08-07T07:06:15;98909.13;;;21.41;53.56
24996;BME280;13016;52.162;21.034;2023-08-07T07:12:16;98905.02;;;21.53;52.49
24996;BME280;13016;52.162;21.034;2023-08-07T07:18:16;98899.48;;;21.63;52.01
24996;BME280;13016;52.162;21.034;2023-08-07T07:24:16;98899.67;;;21.74;51.58
24996;BME280;13016;52.162;21.034;2023-08-07T07:30:16;98911.86;;;21.86;51.88
24996;BME280;13016;52.162;21.034;2023-08-07T07:36:17;98925.20;;;21.81;51.36
24996;BME280;13016;52.162;21.034;2023-08-07T07:42:17;98930.52;;;21.72;51.37
24996;BME280;13016;52.162;21.034;2023-08-07T07:48:18;98934.13;;;21.67;51.16
24996;BME280;13016;52.162;21.034;2023-08-07T07:54:18;98935.13;;;21.57;51.26
24996;BME280;13016;52.162;21.034;2023-08-07T08:00:18;98936.00;;;21.50;51.37
24996;BME280;13016;52.162;21.034;2023-08-07T08:06:18;98943.18;;;21.54;51.12
24996;BME280;13016;52.162;21.034;2023-08-07T08:12:19;98946.03;;;21.42;51.16
24996;BME280;13016;52.162;21.034;2023-08-07T08:18:19;98946.70;;;21.46;51.48
24996;BME280;13016;52.162;21.034;2023-08-07T08:24:19;98938.20;;;21.90;50.94
24996;BME280;13016;52.162;21.034;2023-08-07T08:30:20;98946.10;;;22.26;49.12
24996;BME280;13016;52.162;21.034;2023-08-07T08:36:21;98949.64;;;22.59;48.29
24996;BME280;13016;52.162;21.034;2023-08-07T08:42:21;98957.48;;;22.80;47.87
24996;BME280;13016;52.162;21.034;2023-08-07T08:48:23;98958.62;;;22.75;47.47
24996;BME280;13016;52.162;21.034;2023-08-07T08:54:23;98961.64;;;22.74;47.16
24996;BME280;13016;52.162;21.034;2023-08-07T09:00:24;98955.38;;;22.75;47.20
24996;BME280;13016;52.162;21.034;2023-08-07T09:06:26;98967.91;;;22.97;47.00
24996;BME280;13016;52.162;21.034;2023-08-07T09:12:29;98979.95;;;23.32;46.62
24996;BME280;13016;52.162;21.034;2023-08-07T09:18:32;98994.81;;;23.76;44.07
24996;BME280;13016;52.162;21.034;2023-08-07T09:24:32;98990.95;;;24.50;42.83
24996;BME280;13016;52.162;21.034;2023-08-07T09:30:34;99007.30;;;25.22;40.55
24996;BME280;13016;52.162;21.034;2023-08-07T09:36:35;99019.19;;;25.81;38.87
24996;BME280;13016;52.162;21.034;2023-08-07T09:42:35;99037.38;;;25.93;38.88
24996;BME280;13016;52.162;21.034;2023-08-07T09:48:40;99053.27;;;25.77;38.31
24996;BME280;13016;52.162;21.034;2023-08-07T09:54:40;99067.86;;;25.42;38.24
24996;BME280;13016;52.162;21.034;2023-08-07T10:00:41;99064.80;;;24.97;38.49
24996;BME280;13016;52.162;21.034;2023-08-07T10:06:43;99060.73;;;24.90;38.79
24996;BME280;13016;52.162;21.034;2023-08-07T10:12:44;99059.98;;;24.78;39.26
24996;BME280;13016;52.162;21.034;2023-08-07T10:18:45;99060.58;;;25.04;39.62
24996;BME280;13016;52.162;21.034;2023-08-07T10:24:48;99058.37;;;25.33;39.64
24996;BME280;13016;52.162;21.034;2023-08-07T10:30:48;99066.42;;;25.36;38.76
24996;BME280;13016;52.162;21.034;2023-08-07T10:36:49;99067.11;;;25.26;39.15
24996;BME280;13016;52.162;21.034;2023-08-07T10:42:56;99060.17;;;25.16;39.38
24996;BME280;13016;52.162;21.034;2023-08-07T10:48:56;99047.13;;;25.38;39.16
24996;BME280;13016;52.162;21.034;2023-08-07T10:54:56;99046.80;;;25.58;38.01
24996;BME280;13016;52.162;21.034;2023-08-07T11:07:27;99075.09;;;25.39;37.10
24996;BME280;13016;52.162;21.034;2023-08-07T11:13:29;99084.27;;;25.50;37.38
24996;BME280;13016;52.162;21.034;2023-08-07T11:19:29;99079.86;;;25.56;37.76
24996;BME280;13016;52.162;21.034;2023-08-07T11:25:29;99075.31;;;25.82;38.05
24996;BME280;13016;52.162;21.034;2023-08-07T11:31:30;99084.25;;;26.19;36.80
24996;BME280;13016;52.162;21.034;2023-08-07T11:37:30;99082.39;;;26.23;36.12
24996;BME280;13016;52.162;21.034;2023-08-07T11:43:31;99075.40;;;26.52;36.46
24996;BME280;13016;52.162;21.034;2023-08-07T11:49:32;99078.60;;;26.31;35.43
24996;BME280;13016;52.162;21.034;2023-08-07T11:55:33;99072.98;;;26.13;35.43
24996;BME280;13016;52.162;21.034;2023-08-07T12:01:37;99064.81;;;26.12;35.52
24996;BME280;13016;52.162;21.034;2023-08-07T12:07:39;99072.49;;;26.16;35.49
24996;BME280;13016;52.162;21.034;2023-08-07T12:13:41;99076.65;;;26.29;35.51
24996;BME280;13016;52.162;21.034;2023-08-07T12:19:41;99085.34;;;26.21;35.21
24996;BME280;13016;52.162;21.034;2023-08-07T12:25:42;99108.50;;;25.87;35.28
24996;BME280;13016;52.162;21.034;2023-08-07T12:31:42;99116.75;;;25.81;35.84
24996;BME280;13016;52.162;21.034;2023-08-07T12:37:42;99132.81;;;25.74;36.20
24996;BME280;13016;52.162;21.034;2023-08-07T12:50:21;99148.56;;;25.83;37.18
24996;BME280;13016;52.162;21.034;2023-08-07T12:56:21;99154.19;;;25.97;36.26
24996;BME280;13016;52.162;21.034;2023-08-07T13:02:21;99162.92;;;25.81;35.03
24996;BME280;13016;52.162;21.034;2023-08-07T13:08:21;99158.88;;;25.93;35.05
24996;BME280;13016;52.162;21.034;2023-08-07T13:14:21;99157.63;;;26.18;35.15
24996;BME280;13016;52.162;21.034;2023-08-07T13:20:22;99154.39;;;26.39;34.54
24996;BME280;13016;52.162;21.034;2023-08-07T13:26:22;99153.96;;;26.18;34.19
24996;BME280;13016;52.162;21.034;2023-08-07T13:32:22;99157.79;;;26.18;34.07
24996;BME280;13016;52.162;21.034;2023-08-07T13:38:24;99158.88;;;25.88;33.96
24996;BME280;13016;52.162;21.034;2023-08-07T13:44:24;99159.02;;;25.65;34.07
24996;BME280;13016;52.162;21.034;2023-08-07T13:50:24;99158.95;;;25.50;34.43
24996;BME280;13016;52.162;21.034;2023-08-07T13:56:25;99161.23;;;25.53;35.06
24996;BME280;13016;52.162;21.034;2023-08-07T14:02:25;99174.52;;;25.39;35.26
24996;BME280;13016;52.162;21.034;2023-08-07T14:08:25;99180.52;;;25.27;36.00
24996;BME280;13016;52.162;21.034;2023-08-07T14:14:26;99184.53;;;25.20;36.33
24996;BME280;13016;52.162;21.034;2023-08-07T14:20:26;99189.10;;;25.21;36.31
24996;BME280;13016;52.162;21.034;2023-08-07T14:26:26;99194.64;;;25.29;36.75
24996;BME280;13016;52.162;21.034;2023-08-07T14:32:26;99197.54;;;25.41;36.78
24996;BME280;13016;52.162;21.034;2023-08-07T14:38:27;99192.41;;;25.43;36.88
24996;BME280;13016;52.162;21.034;2023-08-07T14:44:28;99190.42;;;25.41;36.76
24996;BME280;13016;52.162;21.034;2023-08-07T14:50:28;99204.84;;;25.23;37.61
24996;BME280;13016;52.162;21.034;2023-08-07T14:56:29;99210.02;;;24.76;39.65
24996;BME280;13016;52.162;21.034;2023-08-07T15:02:29;99193.61;;;24.59;40.43
24996;BME280;13016;52.162;21.034;2023-08-07T15:08:29;99181.06;;;24.74;40.33
24996;BME280;13016;52.162;21.034;2023-08-07T15:14:30;99180.40;;;24.86;39.23
24996;BME280;13016;52.162;21.034;2023-08-07T15:20:33;99170.42;;;24.81;39.03
24996;BME280;13016;52.162;21.034;2023-08-07T15:26:33;99171.30;;;24.81;38.18
24996;BME280;13016;52.162;21.034;2023-08-07T15:32:33;99178.00;;;24.78;37.45
24996;BME280;13016;52.162;21.034;2023-08-07T15:38:33;99184.95;;;24.79;37.17
24996;BME280;13016;52.162;21.034;2023-08-07T15:44:34;99194.13;;;24.92;37.25
24996;BME280;13016;52.162;21.034;2023-08-07T15:50:35;99203.81;;;24.96;37.81
24996;BME280;13016;52.162;21.034;2023-08-07T15:56:35;99203.18;;;25.11;38.11
24996;BME280;13016;52.162;21.034;2023-08-07T16:02:37;99204.60;;;25.22;38.02
24996;BME280;13016;52.162;21.034;2023-08-07T16:08:37;99211.95;;;25.13;37.88
24996;BME280;13016;52.162;21.034;2023-08-07T16:14:37;99207.75;;;25.14;37.64
24996;BME280;13016;52.162;21.034;2023-08-07T16:20:38;99212.77;;;25.04;37.13
24996;BME280;13016;52.162;21.034;2023-08-07T16:26:38;99212.64;;;24.92;37.20
24996;BME280;13016;52.162;21.034;2023-08-07T16:32:38;99214.05;;;24.93;37.20
24996;BME280;13016;52.162;21.034;2023-08-07T16:38:38;99217.56;;;25.01;37.42
24996;BME280;13016;52.162;21.034;2023-08-07T16:44:39;99237.48;;;25.06;37.19
24996;BME280;13016;52.162;21.034;2023-08-07T16:50:39;99246.35;;;24.93;36.14
24996;BME280;13016;52.162;21.034;2023-08-07T16:56:39;99255.38;;;25.08;35.97
24996;BME280;13016;52.162;21.034;2023-08-07T17:02:40;99259.90;;;25.14;34.94
24996;BME280;13016;52.162;21.034;2023-08-07T17:08:40;99259.04;;;25.28;34.90
24996;BME280;13016;52.162;21.034;2023-08-07T17:14:40;99265.55;;;25.18;35.33
24996;BME280;13016;52.162;21.034;2023-08-07T17:20:41;99272.88;;;25.06;35.29
24996;BME280;13016;52.162;21.034;2023-08-07T17:26:41;99278.16;;;24.82;35.66
24996;BME280;13016;52.162;21.034;2023-08-07T17:32:41;99279.40;;;24.87;36.05
24996;BME280;13016;52.162;21.034;2023-08-07T17:38:42;99287.98;;;24.60;36.08
24996;BME280;13016;52.162;21.034;2023-08-07T17:44:42;99294.23;;;24.32;36.81
24996;BME280;13016;52.162;21.034;2023-08-07T17:50:42;99297.98;;;24.36;36.39
24996;BME280;13016;52.162;21.034;2023-08-07T17:56:43;99302.25;;;24.32;37.09
24996;BME280;13016;52.162;21.034;2023-08-07T18:02:43;99309.81;;;24.31;37.11
24996;BME280;13016;52.162;21.034;2023-08-07T18:08:43;99320.73;;;24.13;37.46
24996;BME280;13016;52.162;21.034;2023-08-07T18:14:44;99324.95;;;23.99;37.88
24996;BME280;13016;52.162;21.034;2023-08-07T18:20:44;99326.66;;;23.82;37.94
24996;BME280;13016;52.162;21.034;2023-08-07T18:26:44;99331.16;;;23.86;37.88
24996;BME280;13016;52.162;21.034;2023-08-07T18:32:45;99340.85;;;23.88;37.84
24996;BME280;13016;52.162;21.034;2023-08-07T18:38:45;99353.04;;;23.80;38.20
24996;BME280;13016;52.162;21.034;2023-08-07T18:44:45;99361.35;;;23.72;38.49
24996;BME280;13016;52.162;21.034;2023-08-07T18:50:45;99369.89;;;23.74;38.88
24996;BME280;13016;52.162;21.034;2023-08-07T18:56:46;99377.01;;;23.70;39.19
24996;BME280;13016;52.162;21.034;2023-08-07T19:02:46;99369.05;;;23.64;39.45
24996;BME280;13016;52.162;21.034;2023-08-07T19:08:46;99369.83;;;23.61;39.94
24996;BME280;13016;52.162;21.034;2023-08-07T19:14:46;99378.23;;;23.60;40.08
24996;BME280;13016;52.162;21.034;2023-08-07T19:20:47;99374.67;;;23.34;40.56
24996;BME280;13016;52.162;21.034;2023-08-07T19:26:47;99381.66;;;23.20;40.92
24996;BME280;13016;52.162;21.034;2023-08-07T19:32:47;99388.20;;;23.02;41.44
24996;BME280;13016;52.162;21.034;2023-08-07T19:38:47;99391.68;;;23.01;41.61
24996;BME280;13016;52.162;21.034;2023-08-07T19:44:48;99397.05;;;22.93;41.93
24996;BME280;13016;52.162;21.034;2023-08-07T19:50:52;99398.45;;;22.86;41.88
24996;BME280;13016;52.162;21.034;2023-08-07T19:56:52;99411.12;;;22.52;42.84
24996;BME280;13016;52.162;21.034;2023-08-07T20:02:52;99412.90;;;22.45;43.24
24996;BME280;13016;52.162;21.034;2023-08-07T20:08:53;99416.00;;;22.23;43.88
24996;BME280;13016;52.162;21.034;2023-08-07T20:14:53;99416.42;;;22.10;44.40
24996;BME280;13016;52.162;21.034;2023-08-07T20:20:53;99421.73;;;21.96;44.95
24996;BME280;13016;52.162;21.034;2023-08-07T20:26:57;99424.85;;;21.82;45.41
24996;BME280;13016;52.162;21.034;2023-08-07T20:32:58;99427.13;;;21.65;45.93
24996;BME280;13016;52.162;21.034;2023-08-07T20:38:58;99436.16;;;21.54;46.36
24996;BME280;13016;52.162;21.034;2023-08-07T20:44:58;99438.98;;;21.58;46.27
24996;BME280;13016;52.162;21.034;2023-08-07T20:50:58;99437.86;;;21.39;46.82
24996;BME280;13016;52.162;21.034;2023-08-07T20:56:59;99437.63;;;21.26;47.40
24996;BME280;13016;52.162;21.034;2023-08-07T21:03:02;99438.66;;;21.13;48.11
24996;BME280;13016;52.162;21.034;2023-08-07T21:09:02;99440.90;;;21.11;48.65
24996;BME280;13016;52.162;21.034;2023-08-07T21:15:06;99438.49;;;21.36;48.41
24996;BME280;13016;52.162;21.034;2023-08-07T21:21:07;99442.38;;;21.23;49.11
24996;BME280;13016;52.162;21.034;2023-08-07T21:27:07;99442.30;;;21.23;49.52
24996;BME280;13016;52.162;21.034;2023-08-07T21:33:07;99445.52;;;21.28;49.67
24996;BME280;13016;52.162;21.034;2023-08-07T21:39:08;99443.06;;;21.24;50.00
24996;BME280;13016;52.162;21.034;2023-08-07T21:45:08;99440.99;;;21.32;49.96
24996;BME280;13016;52.162;21.034;2023-08-07T21:51:09;99447.40;;;21.31;50.10
24996;BME280;13016;52.162;21.034;2023-08-07T21:57:09;99444.88;;;21.31;50.30
24996;BME280;13016;52.162;21.034;2023-08-07T22:03:09;99443.70;;;21.34;50.38
24996;BME280;13016;52.162;21.034;2023-08-07T22:09:09;99447.54;;;21.27;50.85
24996;BME280;13016;52.162;21.034;2023-08-07T22:15:10;99451.75;;;21.25;51.20
24996;BME280;13016;52.162;21.034;2023-08-07T22:21:10;99454.29;;;21.35;51.55
24996;BME280;13016;52.162;21.034;2023-08-07T22:27:11;99457.86;;;21.35;52.97
24996;BME280;13016;52.162;21.034;2023-08-07T22:33:11;99458.81;;;21.23;54.42
24996;BME280;13016;52.162;21.034;2023-08-07T22:39:11;99463.54;;;21.18;55.37
24996;BME280;13016;52.162;21.034;2023-08-07T22:45:11;99464.17;;;21.25;55.54
24996;BME280;13016;52.162;21.034;2023-08-07T22:51:11;99464.51;;;21.29;55.63
24996;BME280;13016;52.162;21.034;2023-08-07T22:57:12;99455.83;;;21.25;55.87
24996;BME280;13016;52.162;21.034;2023-08-07T23:03:12;99456.50;;;21.21;56.02
24996;BME280;13016;52.162;21.034;2023-08-07T23:09:12;99459.77;;;21.19;56.19
24996;BME280;13016;52.162;21.034;2023-08-07T23:15:12;99454.54;;;21.15;56.13
24996;BME280;13016;52.162;21.034;2023-08-07T23:21:13;99456.98;;;21.11;56.09
24996;BME280;13016;52.162;21.034;2023-08-07T23:27:13;99459.61;;;21.04;56.28
24996;BME280;13016;52.162;21.034;2023-08-07T23:33:13;99460.59;;;21.11;56.11
24996;BME280;13016;52.162;21.034;2023-08-07T23:39:13;99458.84;;;21.03;56.09
24996;BME280;13016;52.162;21.034;2023-08-07T23:45:13;99459.58;;;20.93;56.35
24996;BME280;13016;52.162;21.034;2023-08-07T23:51:14;99464.61;;;20.96;55.83
24996;BME280;13016;52.162;21.034;2023-08-07T23:57:14;99466.95;;;20.97;54.92
